Time;durP1;ratioP1;P1;durP2;ratioP2;P2;SDS_P1;SDS_P2;PMS_P1;PMS_P2;Temp;Humidity;BMP_temperature;BMP_pressure;BME280_temperature;BME280_humidity;BME280_pressure;Samples;Min_cycle;Max_cycle;Signal;HPM_P1;HPM_P2
2023/04/03 00:02:10;;;;;;;3.27;2.10;;;6.80;59.90;;;9.31;45.00;103212.50;5039005;28;20592;-61
2023/04/03 00:04:38;;;;;;;3.70;1.67;;;6.80;59.80;;;9.28;44.85;103204.81;5037064;28;20224;-60
2023/04/03 00:07:05;;;;;;;2.40;1.70;;;6.80;60.20;;;9.27;45.27;103203.13;5053410;28;20206;-59
2023/04/03 00:09:32;;;;;;;4.83;1.80;;;6.70;60.20;;;9.27;45.49;103192.63;5038635;28;20202;-60
2023/04/03 00:11:59;;;;;;;4.00;1.30;;;6.70;60.20;;;9.28;45.30;103204.81;5038433;28;20191;-62
2023/04/03 00:14:27;;;;;;;3.23;1.50;;;6.70;60.60;;;9.30;45.30;103204.69;5037821;28;20210;-61
2023/04/03 00:16:54;;;;;;;4.83;1.73;;;6.80;60.60;;;9.31;45.45;103199.38;5036873;28;20245;-61
2023/04/03 00:19:21;;;;;;;3.80;1.57;;;6.80;60.80;;;9.35;45.60;103194.72;5038190;28;20218;-64
2023/04/03 00:21:50;;;;;;;4.97;2.20;;;6.80;60.60;;;9.36;45.00;103202.53;5038594;28;20198;-61
2023/04/03 00:24:17;;;;;;;9.83;2.43;;;6.80;60.10;;;9.33;45.28;103201.88;5036489;28;20222;-61
2023/04/03 00:26:44;;;;;;;2.17;1.77;;;6.80;60.80;;;9.30;45.06;103197.66;5039743;28;20584;-61
2023/04/03 00:29:11;;;;;;;3.63;1.80;;;6.80;60.30;;;9.27;44.99;103208.38;5037383;28;20198;-57
2023/04/03 00:31:38;;;;;;;4.00;2.00;;;6.70;60.30;;;9.19;45.32;103209.88;5051970;28;20194;-60
2023/04/03 00:34:05;;;;;;;2.30;1.63;;;6.60;60.40;;;9.11;45.80;103213.00;5051176;28;20253;-62
2023/04/03 00:36:32;;;;;;;2.63;1.70;;;6.60;60.80;;;9.01;45.81;103217.19;5052798;28;20199;-61
2023/04/03 00:39:00;;;;;;;4.57;1.77;;;6.50;61.10;;;8.96;46.05;103221.09;5035357;28;20685;-60
2023/04/03 00:41:27;;;;;;;4.47;2.03;;;6.40;61.40;;;8.90;46.15;103216.22;5036092;28;20307;-61
2023/04/03 00:43:54;;;;;;;3.70;2.00;;;6.30;61.90;;;8.85;46.41;103216.53;5035012;28;20269;-60
2023/04/03 00:46:21;;;;;;;3.57;2.03;;;6.30;62.00;;;8.84;46.48;103225.38;5035475;28;20659;-61
2023/04/03 00:48:49;;;;;;;3.80;1.73;;;6.30;62.60;;;8.83;46.66;103224.53;5035586;28;20703;-62
2023/04/03 00:51:22;;;;;;;2.73;1.53;;;6.30;62.90;;;8.83;46.51;103232.41;5036139;28;20205;-61
2023/04/03 00:53:54;;;;;;;6.30;2.10;;;6.30;62.50;;;8.85;46.91;103232.28;5035769;28;20214;-60
2023/04/03 00:56:27;;;;;;;5.20;2.17;;;6.30;63.10;;;8.89;46.48;103222.44;5035907;28;20187;-60
2023/04/03 00:59:00;;;;;;;4.37;2.07;;;6.40;63.00;;;8.95;46.36;103227.28;5035602;28;20249;-61
2023/04/03 01:01:30;;;;;;;3.13;1.97;;;6.40;62.20;;;8.98;46.53;103229.69;5035647;28;20244;-62
2023/04/03 01:04:00;;;;;;;4.13;1.90;;;6.40;62.00;;;8.97;46.23;103226.22;5034246;28;20752;-61
2023/04/03 01:06:32;;;;;;;3.50;1.97;;;6.40;61.90;;;8.97;45.98;103223.59;5034791;28;20225;-62
2023/04/03 01:09:00;;;;;;;3.63;1.43;;;6.40;61.70;;;8.96;46.14;103226.34;5034096;28;20718;-59
2023/04/03 01:11:29;;;;;;;2.67;1.37;;;6.40;61.50;;;8.92;45.98;103223.06;5034658;28;21021;-63
2023/04/03 01:13:56;;;;;;;3.83;1.50;;;6.40;61.30;;;8.85;46.45;103222.63;5034753;28;20587;-61
2023/04/03 01:16:23;;;;;;;3.90;1.90;;;6.40;61.70;;;8.81;45.91;103222.94;5034274;28;20199;-59
2023/04/03 01:18:50;;;;;;;4.03;1.67;;;6.30;61.80;;;8.76;46.30;103227.66;5034583;28;20653;-62
2023/04/03 01:21:56;;;;;;;3.57;2.70;;;6.30;61.70;;;8.67;46.57;103230.91;5034494;28;20559;-60
2023/04/03 01:24:35;;;;;;;6.53;5.30;;;6.20;62.40;;;8.68;46.61;103236.03;5034375;28;20218;-63
2023/04/03 01:27:08;;;;;;;5.23;3.73;;;6.20;63.00;;;8.68;46.66;103235.19;5034567;28;20211;-59
2023/04/03 01:29:37;;;;;;;3.50;2.97;;;6.20;62.60;;;8.65;46.26;103240.66;5034455;28;20188;-62
2023/04/03 01:32:06;;;;;;;7.33;4.27;;;6.10;62.00;;;8.60;46.62;103242.75;5034512;28;20193;-57
2023/04/03 01:34:33;;;;;;;17.70;9.97;;;6.10;62.60;;;8.57;46.80;103240.31;5033609;28;20266;-58
2023/04/03 01:37:00;;;;;;;11.43;7.80;;;6.00;62.80;;;8.55;46.80;103239.56;5032680;28;20254;-62
2023/04/03 01:39:27;;;;;;;16.63;8.57;;;6.00;63.00;;;8.51;46.86;103238.91;5033109;28;20204;-60
2023/04/03 01:41:54;;;;;;;9.60;6.67;;;6.00;63.00;;;8.49;46.91;103247.81;5033589;28;20199;-59
2023/04/03 01:44:21;;;;;;;10.83;6.30;;;5.90;62.90;;;8.44;47.12;103242.06;5033432;28;20328;-59
2023/04/03 01:46:48;;;;;;;12.20;7.10;;;5.90;63.50;;;8.44;47.01;103252.53;5033937;28;20250;-61
2023/04/03 01:49:16;;;;;;;12.50;7.27;;;5.90;63.60;;;8.44;47.21;103253.38;5034551;28;20203;-60
2023/04/03 01:51:43;;;;;;;10.97;6.40;;;5.90;63.90;;;8.44;47.31;103252.53;5033951;28;20192;-61
2023/04/03 01:54:10;;;;;;;15.63;9.27;;;5.90;63.90;;;8.45;47.43;103248.97;5033791;28;20680;-59
2023/04/03 01:56:38;;;;;;;11.77;7.47;;;5.90;64.20;;;8.48;47.78;103254.88;5034243;28;20210;-60
2023/04/03 01:59:05;;;;;;;9.10;6.00;;;5.90;64.10;;;8.54;47.14;103251.00;5034670;28;20253;-61
2023/04/03 02:01:32;;;;;;;11.27;6.57;;;6.00;63.60;;;8.55;47.23;103255.31;5034350;28;20190;-60
2023/04/03 02:03:59;;;;;;;10.97;4.97;;;6.00;63.70;;;8.56;47.04;103251.72;5033853;28;20222;-58
2023/04/03 02:06:28;;;;;;;8.20;6.00;;;6.00;63.30;;;8.56;47.41;103262.22;5034316;28;20695;-61
2023/04/03 02:08:55;;;;;;;8.03;4.63;;;6.00;63.70;;;8.58;47.10;103263.81;5032857;28;20202;-62
2023/04/03 02:11:22;;;;;;;9.20;6.50;;;6.00;63.60;;;8.61;47.27;103261.00;5032878;28;20207;-61
2023/04/03 02:13:49;;;;;;;8.20;4.27;;;6.10;63.80;;;8.66;47.02;103273.81;5032445;28;20295;-61
2023/04/03 02:16:16;;;;;;;8.23;4.50;;;6.10;63.30;;;8.66;47.00;103258.06;5033381;28;20187;-62
2023/04/03 02:18:43;;;;;;;5.10;3.50;;;6.10;63.20;;;8.67;46.50;103265.03;5033861;28;20561;-59
2023/04/03 02:21:10;;;;;;;8.83;4.27;;;6.20;62.70;;;8.63;46.74;103268.75;5033333;28;20527;-58
2023/04/03 02:23:38;;;;;;;4.77;3.33;;;6.10;63.00;;;8.60;47.00;103264.59;5037546;28;20734;-62
2023/04/03 02:26:09;;;;;;;5.90;2.87;;;6.10;63.30;;;8.58;46.70;103268.25;5038129;28;20192;-61
2023/04/03 02:28:36;;;;;;;6.17;3.73;;;6.10;63.10;;;8.56;47.37;103262.22;5037518;28;20187;-60
2023/04/03 02:31:06;;;;;;;5.67;2.70;;;6.00;63.20;;;8.54;46.67;103264.97;5037569;28;20208;-62
2023/04/03 02:33:33;;;;;;;5.97;3.27;;;6.00;63.10;;;8.51;46.98;103264.34;5037406;28;20192;-58
2023/04/03 02:36:00;;;;;;;6.67;2.53;;;6.00;63.40;;;8.52;47.08;103266.84;5036999;28;20243;-60
2023/04/03 02:38:27;;;;;;;4.07;2.10;;;6.00;63.50;;;8.49;46.75;103261.78;5038239;28;20238;-57
2023/04/03 02:41:02;;;;;;;6.47;2.60;;;5.90;63.00;;;8.44;46.82;103269.09;5038117;28;20202;-60
2023/04/03 02:43:29;;;;;;;7.10;2.57;;;5.90;63.40;;;8.44;47.27;103263.03;5037880;28;20201;-59
2023/04/03 02:45:56;;;;;;;4.80;2.77;;;5.90;63.70;;;8.44;47.28;103268.28;5037221;28;20265;-60
2023/04/03 02:48:25;;;;;;;5.03;2.23;;;5.90;64.00;;;8.42;47.23;103264.91;5036400;28;20200;-60
2023/04/03 02:50:52;;;;;;;5.80;3.07;;;5.90;63.80;;;8.41;47.40;103266.69;5037449;28;20598;-59
2023/04/03 02:53:19;;;;;;;4.73;2.27;;;5.90;64.20;;;8.43;47.01;103266.59;5036872;28;20194;-61
2023/04/03 02:55:46;;;;;;;7.37;2.57;;;5.90;63.40;;;8.39;46.82;103265.13;5037708;28;20215;-60
2023/04/03 02:58:15;;;;;;;4.87;2.00;;;5.80;63.10;;;8.33;47.06;103274.22;5040606;28;20203;-62
2023/04/03 03:00:42;;;;;;;4.33;2.40;;;5.80;63.60;;;8.28;47.57;103262.31;5042035;28;20531;-62
2023/04/03 03:03:09;;;;;;;7.47;2.40;;;5.70;63.90;;;8.25;47.46;103265.13;5042951;28;20225;-62
2023/04/03 03:05:36;;;;;;;4.67;2.30;;;5.70;64.00;;;8.20;47.43;103266.22;5042497;28;20216;-63
2023/04/03 03:08:03;;;;;;;4.87;1.93;;;5.60;64.00;;;8.18;47.39;103277.75;5042692;28;20191;-63
2023/04/03 03:10:30;;;;;;;2.03;1.60;;;5.60;64.20;;;8.14;47.65;103274.50;5038277;28;20200;-61
2023/04/03 03:12:57;;;;;;;4.40;2.47;;;5.50;64.40;;;8.11;47.69;103276.47;5036535;28;20192;-60
2023/04/03 03:15:25;;;;;;;5.80;2.43;;;5.50;64.50;;;8.06;47.79;103268.88;5034586;28;20278;-61
2023/04/03 03:17:52;;;;;;;4.00;2.23;;;5.50;64.70;;;8.03;47.85;103266.44;5036197;28;20514;-62
2023/04/03 03:20:20;;;;;;;5.07;2.33;;;5.40;65.00;;;8.00;48.11;103277.13;5052291;28;20202;-64
2023/04/03 03:22:47;;;;;;;3.63;2.00;;;5.40;65.10;;;8.01;48.40;103275.38;5036607;28;20199;-62
2023/04/03 03:25:14;;;;;;;3.50;2.20;;;5.40;65.60;;;8.02;48.14;103272.63;5035882;28;20219;-60
2023/04/03 03:27:41;;;;;;;7.93;2.10;;;5.40;65.20;;;8.03;48.58;103276.94;5036228;28;20202;-60
2023/04/03 03:30:09;;;;;;;3.90;1.80;;;5.40;65.40;;;8.02;48.12;103277.88;5036656;28;20202;-61
2023/04/03 03:32:37;;;;;;;7.10;3.10;;;5.40;65.10;;;8.01;48.20;103284.06;5035824;28;20245;-62
2023/04/03 03:35:05;;;;;;;5.87;3.03;;;5.40;65.30;;;8.02;48.19;103288.38;5036814;28;20295;-59
2023/04/03 03:37:32;;;;;;;4.87;2.30;;;5.40;65.40;;;8.01;48.36;103278.81;5037388;28;20514;-61
2023/04/03 03:39:59;;;;;;;5.07;2.20;;;5.40;65.50;;;8.00;48.20;103276.28;5037281;28;20215;-64
2023/04/03 03:42:26;;;;;;;6.37;2.30;;;5.40;65.50;;;7.98;47.85;103281.63;5037163;28;20256;-63
2023/04/03 03:44:53;;;;;;;3.30;2.03;;;5.40;65.00;;;7.93;48.49;103275.84;5036557;28;20289;-60
2023/04/03 03:47:20;;;;;;;6.20;2.53;;;5.30;65.80;;;7.92;48.63;103276.75;5036820;28;20198;-62
2023/04/03 03:49:48;;;;;;;6.43;2.40;;;5.30;65.80;;;7.91;48.33;103275.09;5036956;28;20676;-61
2023/04/03 03:52:15;;;;;;;6.27;2.13;;;5.30;65.60;;;7.89;48.08;103282.19;5037014;28;20196;-61
2023/04/03 03:54:42;;;;;;;4.23;2.27;;;5.30;65.50;;;7.85;48.27;103285.94;5036299;28;20269;-60
2023/04/03 03:57:09;;;;;;;3.33;1.93;;;5.30;66.00;;;7.84;48.80;103272.94;5036679;28;20683;-62
2023/04/03 03:59:36;;;;;;;5.70;2.03;;;5.30;66.40;;;7.85;48.68;103278.06;5037174;28;20260;-59
2023/04/03 04:02:03;;;;;;;5.23;2.50;;;5.30;66.20;;;7.88;48.12;103282.28;5037057;28;20238;-63
2023/04/03 04:04:30;;;;;;;6.03;2.60;;;5.30;65.40;;;7.84;48.37;103279.03;5036173;28;20222;-59
2023/04/03 04:07:00;;;;;;;7.60;2.30;;;5.30;66.00;;;7.82;48.38;103287.91;5038100;28;20593;-61
2023/04/03 04:09:27;;;;;;;3.67;2.00;;;5.20;65.80;;;7.78;48.64;103284.63;5037684;28;20246;-61
2023/04/03 04:11:54;;;;;;;2.47;1.80;;;5.20;66.10;;;7.77;48.38;103287.34;5035918;28;20218;-62
2023/04/03 04:14:21;;;;;;;6.20;2.73;;;5.20;66.20;;;7.73;48.60;103291.94;5034959;28;20206;-59
2023/04/03 04:16:48;;;;;;;4.60;2.07;;;5.20;65.90;;;7.70;48.42;103292.09;5035948;28;20192;-61
2023/04/03 04:19:15;;;;;;;4.37;2.10;;;5.10;66.20;;;7.69;48.54;103295.69;5036347;28;20200;-63
2023/04/03 04:21:43;;;;;;;4.00;2.07;;;5.10;66.20;;;7.65;48.82;103294.19;5036258;28;20203;-62
2023/04/03 04:24:11;;;;;;;5.73;2.50;;;5.00;66.00;;;7.59;48.51;103297.16;5033342;28;20583;-60
2023/04/03 04:26:38;;;;;;;3.40;2.03;;;5.00;66.20;;;7.55;48.97;103302.69;5035630;28;20594;-65
2023/04/03 04:29:05;;;;;;;5.40;2.10;;;5.00;66.70;;;7.51;48.94;103296.78;5036039;28;20195;-61
2023/04/03 04:31:32;;;;;;;3.17;1.90;;;4.90;67.00;;;7.50;49.60;103301.19;5035906;28;20200;-62
2023/04/03 04:33:59;;;;;;;5.27;3.07;;;4.90;67.40;;;7.50;49.51;103310.81;5034918;28;20245;-58
2023/04/03 04:36:26;;;;;;;4.67;1.90;;;4.90;67.40;;;7.49;49.05;103309.97;5035867;28;20681;-60
2023/04/03 04:38:53;;;;;;;6.27;2.07;;;4.90;67.30;;;7.49;49.86;103309.13;5035225;28;20612;-62
2023/04/03 04:41:25;;;;;;;3.30;1.90;;;4.90;67.80;;;7.50;49.35;103310.81;5035790;28;20239;-61
2023/04/03 04:43:52;;;;;;;4.07;2.27;;;4.90;67.90;;;7.53;49.51;103308.84;5035476;28;20231;-62
2023/04/03 04:46:19;;;;;;;5.07;2.27;;;4.90;67.40;;;7.56;49.75;103320.09;5035341;28;20216;-61
2023/04/03 04:48:48;;;;;;;6.13;2.30;;;4.90;68.20;;;7.62;49.42;103320.56;5035505;28;20235;-62
2023/04/03 04:51:15;;;;;;;5.40;2.50;;;5.00;67.60;;;7.69;49.61;103316.66;5035738;28;20200;-61
2023/04/03 04:53:42;;;;;;;6.70;2.60;;;5.10;67.60;;;7.76;48.92;103317.97;5035200;28;20249;-60
2023/04/03 04:56:10;;;;;;;7.90;2.30;;;5.20;67.00;;;7.79;48.63;103320.41;5035760;28;20241;-62
2023/04/03 04:58:38;;;;;;;3.60;1.73;;;5.20;66.40;;;7.77;49.14;103317.03;5035305;28;20261;-63
2023/04/03 05:01:08;;;;;;;5.13;1.90;;;5.20;66.60;;;7.78;49.47;103323.09;5034997;28;20215;-62
2023/04/03 05:03:35;;;;;;;5.13;2.37;;;5.20;67.20;;;7.82;49.21;103330.69;5033610;28;20941;-62
2023/04/03 05:06:03;;;;;;;3.77;1.77;;;5.20;66.90;;;7.86;48.74;103324.34;5034259;28;20712;-61
2023/04/03 05:08:30;;;;;;;6.83;2.43;;;5.30;66.90;;;7.93;48.51;103325.66;5035139;28;20206;-63
2023/04/03 05:10:57;;;;;;;3.80;2.17;;;5.40;66.30;;;7.97;48.74;103327.13;5036578;28;20194;-63
2023/04/03 05:13:24;;;;;;;4.77;1.90;;;5.40;66.40;;;8.02;48.52;103332.94;5034897;28;20215;-61
2023/04/03 05:15:52;;;;;;;3.40;2.00;;;5.50;66.20;;;8.10;48.39;103341.22;5035129;28;20659;-62
2023/04/03 05:18:20;;;;;;;6.50;1.90;;;5.50;65.90;;;8.14;48.03;103345.31;5034443;28;20658;-61
2023/04/03 05:20:48;;;;;;;3.07;1.80;;;5.60;65.60;;;8.19;47.88;103338.00;5033698;28;20194;-61
2023/04/03 05:23:16;;;;;;;3.23;2.17;;;5.60;65.50;;;8.26;47.46;103337.63;5034778;28;20188;-61
2023/04/03 05:25:45;;;;;;;5.40;2.70;;;5.70;64.90;;;8.28;47.54;103335.75;5033569;28;20636;-64
2023/04/03 05:28:12;;;;;;;5.70;2.17;;;5.70;64.70;;;8.28;46.91;103335.75;5035122;28;20711;-60
2023/04/03 05:30:39;;;;;;;5.43;2.33;;;5.70;64.30;;;8.25;47.80;103330.69;5034683;28;20182;-63
2023/04/03 05:33:07;;;;;;;3.27;1.93;;;5.60;64.70;;;8.19;47.71;103332.75;5034901;28;20736;-62
2023/04/03 05:35:38;;;;;;;4.93;2.20;;;5.60;64.80;;;8.20;47.55;103334.44;5034616;28;20664;-61
2023/04/03 05:38:06;;;;;;;4.17;2.30;;;5.60;65.10;;;8.23;47.75;103340.41;5034923;28;20187;-61
2023/04/03 05:40:33;;;;;;;5.43;2.20;;;5.60;65.20;;;8.26;47.63;103337.63;5034511;28;20671;-60
2023/04/03 05:43:00;;;;;;;4.40;1.87;;;5.60;65.30;;;8.26;47.50;103342.88;5034487;28;20207;-63
2023/04/03 05:45:27;;;;;;;5.73;2.40;;;5.60;65.10;;;8.26;47.59;103348.09;5033476;28;20617;-60
2023/04/03 05:47:54;;;;;;;5.53;2.80;;;5.60;65.10;;;8.26;47.55;103349.00;5035522;28;20523;-62
2023/04/03 05:50:23;;;;;;;5.80;3.53;;;5.60;65.10;;;8.29;47.75;103347.97;5035109;28;20194;-62
2023/04/03 05:52:55;;;;;;;7.20;2.70;;;5.70;65.50;;;8.35;47.57;103352.81;5034889;28;20201;-62
2023/04/03 05:55:22;;;;;;;4.93;2.83;;;5.70;65.10;;;8.35;47.13;103351.03;5033775;28;20245;-60
2023/04/03 05:57:49;;;;;;;5.90;2.80;;;5.70;64.60;;;8.35;47.31;103358.06;5041034;28;20721;-60
2023/04/03 06:00:18;;;;;;;5.97;2.40;;;5.70;64.80;;;8.33;47.06;103354.69;5038904;28;20192;-61
2023/04/03 06:02:44;;;;;;;11.87;5.10;;;5.70;65.40;;;8.32;47.08;103359.09;5038947;28;20197;-60
2023/04/03 06:05:12;;;;;;;8.77;2.87;;;5.70;64.90;;;8.34;47.23;103357.25;5037302;28;20222;-63
2023/04/03 06:07:41;;;;;;;22.97;12.97;;;5.70;64.90;;;8.36;47.38;103365.00;5037859;28;20195;-62
2023/04/03 06:10:10;;;;;;;13.17;6.73;;;5.70;65.10;;;8.41;47.58;103363.78;5038339;28;20194;-60
2023/04/03 06:12:37;;;;;;;10.30;3.30;;;5.70;65.10;;;8.48;47.43;103369.50;5053961;28;20194;-62
2023/04/03 06:15:07;;;;;;;10.10;4.67;;;5.80;65.00;;;8.54;47.27;103369.94;5037963;28;20305;-62
2023/04/03 06:17:34;;;;;;;5.23;2.60;;;5.80;65.10;;;8.62;47.20;103377.34;5038381;28;20191;-62
2023/04/03 06:20:03;;;;;;;6.87;2.73;;;5.90;64.70;;;8.69;46.88;103373.38;5037910;28;20586;-63
2023/04/03 06:22:30;;;;;;;6.47;2.37;;;5.90;64.80;;;8.78;46.83;103372.81;5053301;28;20462;-61
2023/04/03 06:24:58;;;;;;;5.20;2.40;;;6.00;64.60;;;8.88;46.69;103376.53;5037433;28;20223;-60
2023/04/03 06:27:25;;;;;;;4.17;2.30;;;6.10;64.40;;;8.97;46.50;103378.56;5036427;28;20198;-63
2023/04/03 06:29:52;;;;;;;6.67;2.53;;;6.20;63.90;;;9.03;46.32;103377.34;5037140;28;20259;-60
2023/04/03 06:32:19;;;;;;;5.57;2.17;;;6.30;63.70;;;9.07;46.12;103379.66;5037521;28;20191;-59
2023/04/03 06:34:47;;;;;;;5.17;1.80;;;6.30;63.30;;;9.12;46.17;103377.59;5036118;28;20216;-62
2023/04/03 06:37:17;;;;;;;3.47;1.80;;;6.40;63.30;;;9.18;45.54;103377.16;5037036;28;20203;-61
2023/04/03 06:39:45;;;;;;;8.07;2.10;;;6.40;62.80;;;9.23;45.40;103380.34;5036831;28;20196;-60
2023/04/03 06:42:13;;;;;;;4.10;1.80;;;6.50;62.80;;;9.26;45.50;103377.50;5037347;28;20198;-62
2023/04/03 06:44:40;;;;;;;5.77;2.30;;;6.50;62.40;;;9.28;45.54;103383.50;5037169;28;20222;-61
2023/04/03 06:47:09;;;;;;;5.90;2.10;;;6.60;62.50;;;9.32;45.06;103384.97;5037157;28;20222;-61
2023/04/03 06:49:36;;;;;;;3.77;1.80;;;6.60;61.90;;;9.35;45.20;103379.53;5037340;28;20194;-61
2023/04/03 06:52:05;;;;;;;4.43;2.03;;;6.60;61.60;;;9.36;44.89;103381.22;5038544;28;20205;-61
2023/04/03 06:54:32;;;;;;;5.40;2.30;;;6.60;61.70;;;9.44;45.37;103389.44;5035705;28;20226;-61
2023/04/03 06:56:59;;;;;;;3.10;1.60;;;6.70;62.10;;;9.53;44.61;103396.69;5037119;28;20191;-61
2023/04/03 06:59:28;;;;;;;4.67;2.47;;;6.80;61.50;;;9.61;44.56;103405.88;5036319;28;20553;-60
2023/04/03 07:01:55;;;;;;;5.00;2.20;;;6.80;61.40;;;9.70;44.38;103406.09;5037349;28;20190;-61
2023/04/03 07:04:22;;;;;;;4.30;2.13;;;6.90;61.30;;;9.80;44.33;103408.94;5036680;28;20285;-62
2023/04/03 07:06:49;;;;;;;6.50;2.40;;;7.00;60.70;;;9.84;43.75;103407.81;5035449;28;20244;-63
2023/04/03 07:09:16;;;;;;;5.00;1.80;;;7.10;60.20;;;9.91;43.85;103406.44;5036928;28;20195;-58
2023/04/03 07:11:43;;;;;;;3.70;1.80;;;7.10;60.00;;;10.09;43.07;103408.66;5035648;28;20195;-62
2023/04/03 07:14:10;;;;;;;4.80;1.90;;;7.20;59.60;;;10.54;42.97;103411.69;5036714;28;20583;-63
2023/04/03 07:16:38;;;;;;;4.47;1.53;;;7.40;60.20;;;11.12;42.24;103411.00;5037317;28;20297;-61
2023/04/03 07:19:08;;;;;;;6.30;3.17;;;7.60;59.50;;;11.74;40.58;103414.28;5036564;28;20708;-58
2023/04/03 07:21:36;;;;;;;4.27;1.70;;;8.10;58.80;;;12.35;39.30;103415.69;5039906;28;20214;-62
2023/04/03 07:24:03;;;;;;;5.13;1.77;;;8.50;56.90;;;13.06;38.50;103417.88;5018415;28;20214;-60
2023/04/03 07:26:31;;;;;;;2.30;1.40;;;9.00;56.20;;;13.66;35.99;103412.84;5039023;28;20219;-63
2023/04/03 07:28:58;;;;;;;3.23;1.60;;;9.60;52.90;;;14.35;35.49;103421.06;5040445;28;20194;-59
2023/04/03 07:31:25;;;;;;;4.27;1.70;;;10.10;51.40;;;15.01;33.96;103420.44;5036687;28;20631;-62
2023/04/03 07:33:53;;;;;;;5.23;3.60;;;10.70;49.40;;;15.77;32.96;103424.94;5035768;28;20278;-62
2023/04/03 07:36:22;;;;;;;5.10;2.27;;;11.20;47.80;;;16.42;31.06;103425.88;5036630;28;20198;-62
2023/04/03 07:38:49;;;;;;;4.87;2.40;;;11.70;45.30;;;17.09;30.81;103422.84;5035078;28;20210;-62
2023/04/03 07:41:19;;;;;;;3.00;1.87;;;12.30;44.90;;;17.72;29.51;103413.78;5035938;28;20201;-62
2023/04/03 07:43:46;;;;;;;4.13;2.67;;;12.80;43.10;;;18.43;28.51;103411.69;5035901;28;20210;-61
2023/04/03 07:46:13;;;;;;;4.50;2.33;;;13.30;41.60;;;19.05;27.53;103421.09;5035366;28;20224;-62
2023/04/03 07:48:41;;;;;;;3.03;2.43;;;13.80;39.70;;;19.61;26.57;103417.66;5035184;28;20566;-61
2023/04/03 07:51:10;;;;;;;5.10;2.13;;;14.30;38.40;;;20.13;25.26;103418.88;5035463;28;20193;-62
2023/04/03 07:53:37;;;;;;;4.50;1.60;;;14.80;36.80;;;20.63;24.29;103420.41;5034931;28;20198;-62
2023/04/03 07:56:05;;;;;;;3.27;1.77;;;15.10;34.70;;;21.05;24.01;103423.53;5035194;28;20193;-64
2023/04/03 07:58:32;;;;;;;2.37;1.57;;;15.50;34.20;;;21.42;23.22;103422.75;5032545;28;20213;-61
2023/04/03 08:01:00;;;;;;;3.93;1.97;;;15.90;33.60;;;21.88;22.55;103421.69;5034275;28;20203;-61
2023/04/03 08:03:27;;;;;;;3.77;1.67;;;16.30;32.40;;;22.23;22.21;103420.13;5033588;28;20214;-63
2023/04/03 08:05:54;;;;;;;2.70;1.50;;;16.60;30.90;;;22.68;21.79;103414.56;5034873;28;20734;-60
2023/04/03 08:08:23;;;;;;;2.20;1.47;;;16.90;30.70;;;22.98;21.01;103417.16;5034116;28;20623;-61
2023/04/03 08:10:52;;;;;;;2.90;1.33;;;17.30;29.50;;;23.30;20.79;103419.34;5036175;28;20558;-62
2023/04/03 08:13:20;;;;;;;1.77;1.30;;;17.60;29.10;;;23.58;20.21;103417.56;5035099;28;20500;-62
2023/04/03 08:15:47;;;;;;;2.40;1.50;;;17.90;28.10;;;23.89;19.85;103422.56;5033823;28;20571;-61
2023/04/03 08:18:15;;;;;;;4.17;1.80;;;18.10;28.00;;;24.25;19.21;103417.00;5034539;28;20182;-61
2023/04/03 08:20:43;;;;;;;3.17;1.40;;;18.40;27.20;;;24.72;19.51;103425.06;5028324;28;20203;-61
2023/04/03 08:23:10;;;;;;;2.40;1.30;;;18.60;27.60;;;24.86;18.03;103421.41;5034912;28;20678;-64
2023/04/03 08:25:41;;;;;;;2.23;1.40;;;18.80;25.10;;;24.88;18.39;103422.88;5018186;28;20230;-61
2023/04/03 08:28:09;;;;;;;3.10;2.30;;;19.10;25.20;;;24.97;17.93;103423.50;5036014;28;20194;-63
2023/04/03 08:30:40;;;;;;;2.17;1.27;;;19.30;25.10;;;25.01;18.08;103416.66;5035708;28;20597;-63
2023/04/03 08:33:08;;;;;;;2.63;1.23;;;19.50;24.70;;;25.07;17.56;103415.03;5033293;28;20186;-63
2023/04/03 08:35:40;;;;;;;2.87;1.37;;;19.60;24.60;;;25.33;17.07;103413.19;5034050;28;20286;-63
2023/04/03 08:38:08;;;;;;;1.40;1.20;;;19.70;24.10;;;25.62;17.24;103417.38;5033924;28;20217;-60
2023/04/03 08:40:35;;;;;;;2.57;1.40;;;19.80;24.20;;;25.92;16.99;103413.16;5032484;28;20237;-63
2023/04/03 08:43:31;;;;;;;2.60;1.47;;;20.00;24.20;;;26.45;16.94;103413.03;5034408;28;20179;-62
2023/04/03 08:46:06;;;;;;;3.70;2.17;;;20.20;24.10;;;26.85;15.90;103407.25;5034725;28;20221;-62
2023/04/03 08:48:40;;;;;;;4.37;1.90;;;20.50;23.20;;;27.01;15.53;103407.75;5034578;28;20276;-61
2023/04/03 08:51:15;;;;;;;1.83;1.50;;;20.70;22.30;;;27.16;15.28;103411.81;5035576;28;20186;-59
2023/04/03 08:53:51;;;;;;;2.83;1.53;;;20.90;21.80;;;27.41;15.29;103398.31;5034114;28;20190;-60
2023/04/03 08:56:18;;;;;;;2.47;1.10;;;21.00;21.80;;;27.53;14.20;103396.53;5034143;28;20214;-62
2023/04/03 08:58:55;;;;;;;2.03;1.50;;;21.20;20.70;;;27.58;14.44;103394.00;5033809;28;20195;-61
2023/04/03 09:01:29;;;;;;;2.23;1.00;;;21.40;21.00;;;27.61;14.32;103398.97;5034163;28;20202;-62
2023/04/03 09:03:56;;;;;;;2.40;1.73;;;21.60;20.90;;;28.06;14.21;103392.28;5019519;28;20686;-61
2023/04/03 09:06:31;;;;;;;3.53;1.50;;;21.80;21.00;;;28.58;14.28;103395.38;5033722;28;20210;-61
2023/04/03 09:09:12;;;;;;;1.87;1.20;;;22.00;20.60;;;28.94;13.57;103399.88;5033887;28;20182;-60
2023/04/03 09:11:56;;;;;;;1.77;1.30;;;22.30;20.00;;;29.34;13.67;103392.78;5034318;28;20662;-63
2023/04/03 09:14:35;;;;;;;2.97;1.23;;;22.50;20.10;;;29.77;13.17;103392.47;5033645;28;20225;-60
2023/04/03 09:17:13;;;;;;;5.30;2.77;;;22.70;19.80;;;30.03;12.70;103383.78;5034152;28;20213;-62
2023/04/03 09:19:51;;;;;;;3.70;1.50;;;22.90;19.30;;;30.06;12.74;103383.31;5034168;28;20261;-59
2023/04/03 09:22:24;;;;;;;3.17;1.50;;;23.10;19.30;;;30.06;12.70;103394.19;5033849;28;20198;-60
2023/04/03 09:25:00;;;;;;;3.83;2.03;;;23.20;18.60;;;30.08;11.82;103389.34;5033648;28;20217;-59
2023/04/03 09:27:27;;;;;;;5.40;4.10;;;23.20;18.30;;;30.25;12.60;103381.25;5033928;28;20302;-62
2023/04/03 09:29:57;;;;;;;4.30;3.77;;;23.30;18.40;;;30.56;12.17;103388.97;5033776;28;20549;-61
2023/04/03 09:32:28;;;;;;;1.37;1.20;;;23.40;18.80;;;30.74;12.21;103386.03;5033574;28;20217;-61
2023/04/03 09:35:01;;;;;;;2.83;1.90;;;23.40;18.00;;;30.93;12.01;103386.69;5032803;28;20581;-63
2023/04/03 09:37:45;;;;;;;2.03;1.93;;;23.60;18.70;;;31.38;12.03;103387.41;5032999;28;20194;-62
2023/04/03 09:40:38;;;;;;;1.30;1.13;;;23.70;19.00;;;31.82;11.86;103377.47;5033602;28;20262;-60
2023/04/03 09:43:29;;;;;;;2.20;2.00;;;24.10;19.20;;;32.15;11.19;103374.63;5021073;28;20209;-61
2023/04/03 09:46:24;;;;;;;4.27;2.70;;;24.30;17.80;;;32.23;11.31;103378.81;5032930;28;20272;-62
2023/04/03 09:48:56;;;;;;;2.07;1.37;;;24.40;17.20;;;32.17;10.59;103375.22;5031296;28;20264;-62
2023/04/03 09:51:35;;;;;;;3.13;1.60;;;24.50;17.20;;;32.29;10.88;103366.88;5024818;28;20245;-60
2023/04/03 09:54:40;;;;;;;4.13;1.13;;;24.60;17.30;;;32.45;10.61;103372.25;5033161;28;20219;-62
2023/04/03 09:57:13;;;;;;;2.27;1.30;;;24.60;16.90;;;32.38;10.43;103360.72;5033732;28;20650;-62
2023/04/03 09:59:47;;;;;;;1.97;1.00;;;24.70;16.40;;;32.35;10.18;103361.25;5032383;28;20285;-62
2023/04/03 10:02:35;;;;;;;1.20;1.00;;;24.90;16.40;;;32.52;10.41;103369.38;5033257;28;20202;-62
2023/04/03 10:05:05;;;;;;;1.57;1.00;;;25.00;16.80;;;32.60;10.63;103363.44;5042546;28;20211;-63
2023/04/03 10:07:38;;;;;;;1.83;1.00;;;25.10;16.70;;;32.80;10.22;103363.63;5030362;28;20674;-63
2023/04/03 10:10:22;;;;;;;6.90;6.20;;;25.10;16.60;;;32.69;10.20;103350.94;5033211;28;20187;-63
2023/04/03 10:13:06;;;;;;;3.70;2.60;;;25.10;16.20;;;32.55;10.60;103360.66;5033584;28;20198;-61
2023/04/03 10:15:42;;;;;;;2.57;1.50;;;25.20;16.20;;;32.61;10.45;103362.34;5033150;28;20292;-61
2023/04/03 10:18:31;;;;;;;3.70;1.50;;;25.30;16.40;;;32.67;10.79;103353.13;5049240;28;20550;-61
2023/04/03 10:21:08;;;;;;;2.60;1.50;;;25.30;16.70;;;33.08;10.37;103351.59;5033372;28;20187;-62
2023/04/03 10:24:05;;;;;;;2.40;1.60;;;25.40;16.80;;;33.41;9.93;103360.28;5046933;28;20695;-64
2023/04/03 10:26:45;;;;;;;3.37;1.73;;;25.50;16.30;;;33.50;9.54;103351.59;4997039;28;20262;-62
2023/04/03 10:29:34;;;;;;;1.60;1.23;;;25.60;16.00;;;33.22;9.36;103356.34;5014359;28;20197;-64
2023/04/03 10:32:26;;;;;;;4.57;1.43;;;25.60;15.70;;;32.50;10.25;103349.69;5014666;28;20195;-63
2023/04/03 10:35:07;;;;;;;2.83;1.33;;;25.40;15.30;;;31.68;10.31;103344.31;5013980;28;20219;-61